Stites, ID (83552)

4:10 AM PST on January 24, 2017 (GMT -0800)
Clearcreek Valley | | Change Station

Elev 1430 ft 46.10 °N, 115.94 °W | Updated 6 seconds ago

Overcast
Overcast
30.0 °F
Feels Like 30 °F
N
0.0
Wind Variable Wind from SSE

Today
High -- | Low -- °F
--% Chance of Precip.
Yesterday
High -- | Low -- °F
Precip. -- in
Pressure 30.02 in
Visibility 10.0 miles
Clouds Overcast 1800 ft
Windchill 30 °F
Dew Point 30 °F
Humidity 99%
Rainfall 0.00 in
Snow Depth Not available.
7:14 AM 4:37 PM
Waning Crescent, 12% visible
METAR KLWS 241156Z AUTO 25006KT 10SM OVC018 00/M03 A2998 RMK AO2 SLP164 60000 T00001028 10000 21006 51013
Pressure 30.02 in
Visibility 10.0 miles
Clouds Overcast 1800 ft
Windchill 30 °F
Dew Point 30 °F
Humidity 99%
Rainfall 0.00 in
Snow Depth Not available.
7:14 AM 4:37 PM
Waning Crescent, 12% visible
METAR KLWS 241156Z AUTO 25006KT 10SM OVC018 00/M03 A2998 RMK AO2 SLP164 60000 T00001028 10000 21006 51013

Get Your Daily Forecast Email!

Thanks for signing up!

Be on the lookout for a verification email in your inbox.

You'll start receiving the daily forecast at 8 AM.

×

10-Day Weather Forecast

Almanac

Astronomy

Jan. 24, 2017 Rise Set
Actual Time
Civil Twilight
Nautical Twilight
Astronomical Twilight
Moon
Length of Visible Light
Length of Day
Tomorrow will be .
, % of the Moon is Illuminated

Today's Extremes

State Highs State Lows

Community

WunderPhotos

Upload Photos

1,962,540 photos uploaded!

WunderBlog® & News

Nearby

Air Quality

  Air Quality AQ Index Pollutant
Not available.

Snow Depth

Station Depth Elevation

Earthquake Activity

City Distance Mag. Time & Date
Minimum magnitude displayed is 2.5.

Coastal Water Temperatures

Place Temperature

Stations

Nearby Weather Stations

Station Location Temp. Windchill Dew Point Humidity Wind Precip. Elev Updated Type
                   

Watches & Warnings

There are currently no watches in effect.